Tomahawk, WI

1:58 AM CST on March 02, 2015 (GMT -0600)
RAWS TOMAHAWK WI US | Change Station
CLOSE
Current Station
Personal Weather Station
Location: Tomahawk, WI
Elevation: 1449 ft
Nearby Weather Stations

Elev 1449 ft 45.47 °N, 89.80 °W | Updated 48 minutes ago

Mostly Cloudy
Mostly Cloudy
15 °F
Feels Like 4 °F
N
8
Wind Variable Wind from WNW
Gusts 16.0 mph

Today
High -- | Low -- °F
--% Chance of Precip.
Yesterday
High -- | Low -- °F
Precip. -- in
6:35 AM 5:47 PM
Waxing Gibbous, 90% visible
Pressure 30.25 in
Visibility 10.0 miles
Clouds Overcast 3300 ft
Windchill 4 °F
Dew Point 7 °F
Humidity 69%
Rainfall 0.00 in
Snow Depth Not available.
UV 0 out of 12
Pollen .40 out of 12
Air Quality Not available.
Flu Activity Not available.
METAR KTKV 020735Z AUTO 00000KT 10SM OVC033 M10/M13 A3025 RMK AO2 T11001133

More Conditions Fewer Conditions

Pressure 30.25 in
Visibility 10.0 miles
Clouds Overcast 3300 ft
Windchill 4 °F
Dew Point 7 °F
Humidity 69%
Rainfall 0.00 in
Snow Depth Not available.
UV 0 out of 12
Pollen .40 out of 12
Air Quality Not available.
Flu Activity Not available.
METAR KTKV 020735Z AUTO 00000KT 10SM OVC033 M10/M13 A3025 RMK AO2 T11001133

More Conditions Fewer Conditions

10-Day Weather Forecast

Almanac

Astronomy

Mar. 02, 2015 Rise Set
Actual Time
Civil Twilight
Nautical Twilight
Astronomical Twilight
Moon
Length of Visible Light
Length of Day
Tomorrow will be .
, % of the Moon is Illuminated

Today's Extremes

State Highs State Lows

Community

WunderPhotos

Upload Photos

1,801,739 photos uploaded!

WunderBlogs® & News

Nearby

Air Quality

  Air Quality AQ Index Pollutant
Not available.

Snow Depth

Station Depth Elevation

Earthquake Activity

City Distance Mag. Time & Date
Minimum magnitude displayed is 2.5.

Coastal Water Temperatures

Place Temperature

Nearby Weather Stations